sensor_id;sensor_type;location;lat;lon;timestamp;pressure;altitude;pressure_sealevel;temperature;humidity
76106;BME280;64832;45.274;5.880;2022-12-19T15:49:41;99868.28;;;19.35;43.86
76106;BME280;64832;45.274;5.880;2022-12-19T15:52:24;99867.28;;;19.29;45.28
76106;BME280;64832;45.274;5.880;2022-12-19T15:54:49;99874.75;;;19.34;46.35
76106;BME280;64832;45.274;5.880;2022-12-19T15:57:34;99873.09;;;19.40;46.82
76106;BME280;64832;45.274;5.880;2022-12-19T16:00:05;99870.16;;;19.41;47.26
76106;BME280;64832;45.274;5.880;2022-12-19T16:02:32;99876.59;;;19.47;47.83
76106;BME280;64832;45.274;5.880;2022-12-19T16:04:58;99873.44;;;19.50;48.03
76106;BME280;64832;45.274;5.880;2022-12-19T16:07:23;99861.13;;;19.47;48.33
76106;BME280;64832;45.274;5.880;2022-12-19T16:09:52;99871.09;;;19.53;48.53
76106;BME280;64832;45.274;5.880;2022-12-19T16:12:33;99850.06;;;19.49;48.61
76106;BME280;64832;45.274;5.880;2022-12-19T16:15:00;99854.19;;;19.58;49.02
76106;BME280;64832;45.274;5.880;2022-12-19T16:17:28;99849.56;;;19.58;49.21
76106;BME280;64832;45.274;5.880;2022-12-19T16:19:54;99862.09;;;19.59;49.15
76106;BME280;64832;45.274;5.880;2022-12-19T16:22:25;99859.75;;;19.63;49.50
76106;BME280;64832;45.274;5.880;2022-12-19T16:24:52;99854.34;;;19.63;49.67
76106;BME280;64832;45.274;5.880;2022-12-19T16:27:22;99860.38;;;19.65;49.62
76106;BME280;64832;45.274;5.880;2022-12-19T16:29:48;99868.28;;;19.66;49.87
76106;BME280;64832;45.274;5.880;2022-12-19T16:32:14;99859.94;;;19.68;50.03
76106;BME280;64832;45.274;5.880;2022-12-19T16:34:39;99849.50;;;19.65;50.24
76106;BME280;64832;45.274;5.880;2022-12-19T16:37:05;99840.09;;;19.67;50.13
76106;BME280;64832;45.274;5.880;2022-12-19T16:39:31;99843.41;;;19.69;50.27
76106;BME280;64832;45.274;5.880;2022-12-19T16:41:56;99843.19;;;19.71;50.48
76106;BME280;64832;45.274;5.880;2022-12-19T16:44:22;99836.09;;;19.70;50.62
76106;BME280;64832;45.274;5.880;2022-12-19T16:46:48;99832.72;;;19.74;50.72
76106;BME280;64832;45.274;5.880;2022-12-19T16:49:17;99829.38;;;19.72;50.80
76106;BME280;64832;45.274;5.880;2022-12-19T16:51:44;99820.66;;;19.70;50.90
76106;BME280;64832;45.274;5.880;2022-12-19T16:54:13;99826.84;;;19.77;50.92
76106;BME280;64832;45.274;5.880;2022-12-19T16:56:40;99826.63;;;19.79;50.90
76106;BME280;64832;45.274;5.880;2022-12-19T16:59:13;99805.59;;;19.74;50.93
76106;BME280;64832;45.274;5.880;2022-12-19T17:01:42;99817.44;;;19.80;51.15
76106;BME280;64832;45.274;5.880;2022-12-19T17:04:12;99809.66;;;19.83;51.35
76106;BME280;64832;45.274;5.880;2022-12-19T17:06:37;99809.06;;;19.81;51.33
76106;BME280;64832;45.274;5.880;2022-12-19T17:09:02;99813.00;;;19.85;51.44
76106;BME280;64832;45.274;5.880;2022-12-19T17:11:28;99805.91;;;19.84;51.30
76106;BME280;64832;45.274;5.880;2022-12-19T17:14:03;99807.34;;;19.87;51.59
76106;BME280;64832;45.274;5.880;2022-12-19T17:16:30;99806.28;;;19.88;51.30
76106;BME280;64832;45.274;5.880;2022-12-19T17:18:57;99806.50;;;19.86;51.42
76106;BME280;64832;45.274;5.880;2022-12-19T17:21:22;99804.00;;;19.85;51.36
76106;BME280;64832;45.274;5.880;2022-12-19T17:23:49;99804.63;;;19.87;51.47
76106;BME280;64832;45.274;5.880;2022-12-19T17:26:15;99804.63;;;19.87;51.26
76106;BME280;64832;45.274;5.880;2022-12-19T17:28:40;99807.72;;;19.90;51.33
76106;BME280;64832;45.274;5.880;2022-12-19T17:31:13;99799.56;;;19.90;51.28
76106;BME280;64832;45.274;5.880;2022-12-19T17:33:41;99805.00;;;19.90;51.54
76106;BME280;64832;45.274;5.880;2022-12-19T17:36:10;99809.16;;;19.93;51.58
76106;BME280;64832;45.274;5.880;2022-12-19T17:38:37;99804.72;;;19.99;51.95
76106;BME280;64832;45.274;5.880;2022-12-19T17:41:02;99800.91;;;20.00;51.95
76106;BME280;64832;45.274;5.880;2022-12-19T17:43:28;99804.72;;;19.99;52.09
76106;BME280;64832;45.274;5.880;2022-12-19T17:45:53;99797.84;;;19.96;52.23
76106;BME280;64832;45.274;5.880;2022-12-19T17:48:26;99799.28;;;19.99;52.30
76106;BME280;64832;45.274;5.880;2022-12-19T17:50:53;99795.72;;;19.98;52.36
76106;BME280;64832;45.274;5.880;2022-12-19T17:53:19;99802.00;;;19.99;52.49
76106;BME280;64832;45.274;5.880;2022-12-19T17:55:44;99800.31;;;19.98;52.64
76106;BME280;64832;45.274;5.880;2022-12-19T17:58:10;99811.19;;;19.98;52.83
76106;BME280;64832;45.274;5.880;2022-12-19T18:00:36;99814.28;;;20.01;52.89
76106;BME280;64832;45.274;5.880;2022-12-19T18:03:24;99820.56;;;20.02;53.01
76106;BME280;64832;45.274;5.880;2022-12-19T18:05:52;99817.84;;;20.02;53.24
76106;BME280;64832;45.274;5.880;2022-12-19T18:08:26;99815.56;;;19.99;53.22
76106;BME280;64832;45.274;5.880;2022-12-19T18:10:53;99821.59;;;20.01;53.61
76106;BME280;64832;45.274;5.880;2022-12-19T18:13:20;99816.41;;;19.99;53.67
76106;BME280;64832;45.274;5.880;2022-12-19T18:15:46;99813.47;;;20.01;53.78
76106;BME280;64832;45.274;5.880;2022-12-19T18:18:13;99824.91;;;20.03;53.71
76106;BME280;64832;45.274;5.880;2022-12-19T18:20:40;99817.59;;;20.03;54.11
76106;BME280;64832;45.274;5.880;2022-12-19T18:23:14;99821.22;;;19.97;54.05
76106;BME280;64832;45.274;5.880;2022-12-19T18:25:40;99819.72;;;20.01;54.32
76106;BME280;64832;45.274;5.880;2022-12-19T18:28:06;99820.56;;;20.02;54.25
76106;BME280;64832;45.274;5.880;2022-12-19T18:30:31;99828.72;;;20.02;54.63
76106;BME280;64832;45.274;5.880;2022-12-19T18:32:59;99815.13;;;20.02;54.48
76106;BME280;64832;45.274;5.880;2022-12-19T18:35:38;99826.59;;;20.04;54.45
76106;BME280;64832;45.274;5.880;2022-12-19T18:38:07;99820.75;;;20.00;54.69
76106;BME280;64832;45.274;5.880;2022-12-19T18:40:36;99826.00;;;20.02;54.99
76106;BME280;64832;45.274;5.880;2022-12-19T18:43:02;99830.00;;;19.99;54.92
76106;BME280;64832;45.274;5.880;2022-12-19T18:45:38;99831.19;;;20.03;54.86
76106;BME280;64832;45.274;5.880;2022-12-19T18:48:06;99826.59;;;20.04;54.97
76106;BME280;64832;45.274;5.880;2022-12-19T18:50:35;99819.94;;;20.00;54.93
76106;BME280;64832;45.274;5.880;2022-12-19T18:53:00;99822.44;;;20.01;55.04
76106;BME280;64832;45.274;5.880;2022-12-19T18:55:28;99833.06;;;20.03;55.15
76106;BME280;64832;45.274;5.880;2022-12-19T18:57:54;99836.63;;;20.03;55.02
76106;BME280;64832;45.274;5.880;2022-12-19T19:00:26;99825.34;;;20.00;55.16
76106;BME280;64832;45.274;5.880;2022-12-19T19:05:22;99840.41;;;20.02;55.40
76106;BME280;64832;45.274;5.880;2022-12-19T19:07:48;99845.84;;;20.02;55.48
76106;BME280;64832;45.274;5.880;2022-12-19T19:12:40;99830.88;;;19.93;55.53
76106;BME280;64832;45.274;5.880;2022-12-19T19:15:07;99830.88;;;19.93;55.36
76106;BME280;64832;45.274;5.880;2022-12-19T19:17:32;99842.72;;;19.99;55.23
76106;BME280;64832;45.274;5.880;2022-12-19T19:19:58;99847.03;;;20.06;55.42
76106;BME280;64832;45.274;5.880;2022-12-19T19:22:23;99839.28;;;20.10;55.31
76106;BME280;64832;45.274;5.880;2022-12-19T19:24:49;99837.41;;;20.10;55.28
76106;BME280;64832;45.274;5.880;2022-12-19T19:27:14;99841.09;;;20.16;55.00
76106;BME280;64832;45.274;5.880;2022-12-19T19:29:40;99840.41;;;20.20;55.08
76106;BME280;64832;45.274;5.880;2022-12-19T19:32:05;99833.31;;;20.19;55.09
76106;BME280;64832;45.274;5.880;2022-12-19T19:34:34;99847.91;;;20.25;54.89
76106;BME280;64832;45.274;5.880;2022-12-19T19:37:01;99849.13;;;20.29;55.03
76106;BME280;64832;45.274;5.880;2022-12-19T19:39:30;99852.44;;;20.31;54.83
76106;BME280;64832;45.274;5.880;2022-12-19T19:41:57;99855.00;;;20.26;54.76
76106;BME280;64832;45.274;5.880;2022-12-19T19:44:22;99845.13;;;20.31;54.89
76106;BME280;64832;45.274;5.880;2022-12-19T19:46:47;99857.81;;;20.37;55.02
76106;BME280;64832;45.274;5.880;2022-12-19T19:49:13;99850.13;;;20.34;54.73
76106;BME280;64832;45.274;5.880;2022-12-19T19:51:39;99846.31;;;20.35;54.85
76106;BME280;64832;45.274;5.880;2022-12-19T19:54:05;99857.81;;;20.37;54.69
76106;BME280;64832;45.274;5.880;2022-12-19T19:56:30;99862.16;;;20.38;54.81
76106;BME280;64832;45.274;5.880;2022-12-19T19:58:56;99860.88;;;20.41;54.86
76106;BME280;64832;45.274;5.880;2022-12-19T20:01:23;99847.53;;;20.39;54.68
76106;BME280;64832;45.274;5.880;2022-12-19T20:03:49;99844.59;;;20.41;54.54
76106;BME280;64832;45.274;5.880;2022-12-19T20:06:14;99844.59;;;20.41;54.34
76106;BME280;64832;45.274;5.880;2022-12-19T20:08:40;99852.97;;;20.39;54.39
76106;BME280;64832;45.274;5.880;2022-12-19T20:11:07;99851.94;;;20.40;54.26
76106;BME280;64832;45.274;5.880;2022-12-19T20:13:33;99859.47;;;20.38;53.93
76106;BME280;64832;45.274;5.880;2022-12-19T20:18:27;99864.88;;;20.38;53.56
76106;BME280;64832;45.274;5.880;2022-12-19T20:20:53;99858.88;;;20.36;53.39
76106;BME280;64832;45.274;5.880;2022-12-19T20:23:18;99850.94;;;20.35;53.49
76106;BME280;64832;45.274;5.880;2022-12-19T20:25:44;99850.50;;;20.38;53.23
76106;BME280;64832;45.274;5.880;2022-12-19T20:28:09;99854.94;;;20.32;53.21
76106;BME280;64832;45.274;5.880;2022-12-19T20:30:36;99861.81;;;20.35;53.15
76106;BME280;64832;45.274;5.880;2022-12-19T20:33:01;99865.34;;;20.35;53.09
76106;BME280;64832;45.274;5.880;2022-12-19T20:35:26;99871.00;;;20.34;52.93
76106;BME280;64832;45.274;5.880;2022-12-19T20:37:52;99861.03;;;20.28;52.91
76106;BME280;64832;45.274;5.880;2022-12-19T20:40:17;99870.19;;;20.33;52.78
76106;BME280;64832;45.274;5.880;2022-12-19T20:42:42;99867.91;;;20.30;52.67
76106;BME280;64832;45.274;5.880;2022-12-19T20:45:09;99870.19;;;20.33;52.60
76106;BME280;64832;45.274;5.880;2022-12-19T20:47:34;99868.53;;;20.32;52.62
76106;BME280;64832;45.274;5.880;2022-12-19T20:49:59;99879.41;;;20.32;52.40
76106;BME280;64832;45.274;5.880;2022-12-19T20:52:25;99868.97;;;20.29;52.42
76106;BME280;64832;45.274;5.880;2022-12-19T20:54:50;99872.75;;;20.28;52.45
76106;BME280;64832;45.274;5.880;2022-12-19T20:57:15;99878.78;;;20.30;52.20
76106;BME280;64832;45.274;5.880;2022-12-19T20:59:41;99869.25;;;20.21;52.08
76106;BME280;64832;45.274;5.880;2022-12-19T21:02:06;99882.56;;;20.29;52.19
76106;BME280;64832;45.274;5.880;2022-12-19T21:04:33;99885.28;;;20.29;52.16
76106;BME280;64832;45.274;5.880;2022-12-19T21:06:58;99882.78;;;20.28;51.97
76106;BME280;64832;45.274;5.880;2022-12-19T21:09:24;99884.66;;;20.27;52.03
76106;BME280;64832;45.274;5.880;2022-12-19T21:11:49;99891.78;;;20.28;51.96
76106;BME280;64832;45.274;5.880;2022-12-19T21:14:14;99904.50;;;20.28;51.88
76106;BME280;64832;45.274;5.880;2022-12-19T21:16:40;99893.25;;;20.24;51.83
76106;BME280;64832;45.274;5.880;2022-12-19T21:19:05;99903.28;;;20.24;51.79
76106;BME280;64832;45.274;5.880;2022-12-19T21:21:31;99887.81;;;20.24;51.71
76106;BME280;64832;45.274;5.880;2022-12-19T21:23:56;99883.63;;;20.22;51.68
76106;BME280;64832;45.274;5.880;2022-12-19T21:26:23;99889.91;;;20.22;51.87
76106;BME280;64832;45.274;5.880;2022-12-19T21:28:50;99873.41;;;20.24;51.85
76106;BME280;64832;45.274;5.880;2022-12-19T21:33:43;99869.84;;;20.23;52.16
76106;BME280;64832;45.274;5.880;2022-12-19T21:36:13;99863.56;;;20.23;51.82
76106;BME280;64832;45.274;5.880;2022-12-19T21:38:41;99858.59;;;20.20;51.93
76106;BME280;64832;45.274;5.880;2022-12-19T21:41:07;99857.53;;;20.21;51.76
76106;BME280;64832;45.274;5.880;2022-12-19T21:43:34;99854.59;;;20.22;51.60
76106;BME280;64832;45.274;5.880;2022-12-19T21:46:10;99852.94;;;20.21;51.71
76106;BME280;64832;45.274;5.880;2022-12-19T21:48:41;99838.75;;;20.19;51.37
76106;BME280;64832;45.274;5.880;2022-12-19T21:51:09;99836.25;;;20.18;51.42
76106;BME280;64832;45.274;5.880;2022-12-19T21:53:35;99835.44;;;20.17;51.39
76106;BME280;64832;45.274;5.880;2022-12-19T21:56:07;99835.44;;;20.17;51.39
76106;BME280;64832;45.274;5.880;2022-12-19T21:58:33;99827.03;;;20.19;51.31
76106;BME280;64832;45.274;5.880;2022-12-19T22:01:07;99839.19;;;20.16;51.21
76106;BME280;64832;45.274;5.880;2022-12-19T22:03:33;99833.16;;;20.14;51.05
76106;BME280;64832;45.274;5.880;2022-12-19T22:05:58;99829.16;;;20.17;51.04
76106;BME280;64832;45.274;5.880;2022-12-19T22:08:24;99818.97;;;20.12;50.95
76106;BME280;64832;45.274;5.880;2022-12-19T22:10:49;99819.38;;;20.16;50.93
76106;BME280;64832;45.274;5.880;2022-12-19T22:13:15;99831.72;;;20.12;50.84
76106;BME280;64832;45.274;5.880;2022-12-19T22:15:41;99821.44;;;20.14;50.91
76106;BME280;64832;45.274;5.880;2022-12-19T22:18:06;99824.81;;;20.16;50.85
76106;BME280;64832;45.274;5.880;2022-12-19T22:20:31;99832.94;;;20.16;50.75
76106;BME280;64832;45.274;5.880;2022-12-19T22:22:57;99817.09;;;20.13;50.83
76106;BME280;64832;45.274;5.880;2022-12-19T22:25:22;99812.13;;;20.10;51.00
76106;BME280;64832;45.274;5.880;2022-12-19T22:27:47;99809.16;;;20.11;51.17
76106;BME280;64832;45.274;5.880;2022-12-19T22:30:13;99815.44;;;20.12;51.20
76106;BME280;64832;45.274;5.880;2022-12-19T22:32:39;99797.53;;;20.04;51.07
76106;BME280;64832;45.274;5.880;2022-12-19T22:35:05;99816.13;;;20.07;50.81
76106;BME280;64832;45.274;5.880;2022-12-19T22:37:31;99813.16;;;20.09;50.87
76106;BME280;64832;45.274;5.880;2022-12-19T22:39:56;99814.44;;;20.06;50.91
76106;BME280;64832;45.274;5.880;2022-12-19T22:42:24;99811.13;;;20.04;50.74
76106;BME280;64832;45.274;5.880;2022-12-19T22:44:51;99815.72;;;20.04;51.04
76106;BME280;64832;45.274;5.880;2022-12-19T22:47:16;99799.03;;;20.00;50.97
76106;BME280;64832;45.274;5.880;2022-12-19T22:49:42;99789.69;;;19.96;50.71
76106;BME280;64832;45.274;5.880;2022-12-19T22:52:07;99794.25;;;20.02;50.92
76106;BME280;64832;45.274;5.880;2022-12-19T22:54:32;99803.44;;;20.01;51.00
76106;BME280;64832;45.274;5.880;2022-12-19T22:56:58;99791.72;;;20.01;51.55
76106;BME280;64832;45.274;5.880;2022-12-19T22:59:23;99797.16;;;20.01;51.68
